createdAt,value
2019-01-30T00:00:30.277Z,94858.63
2019-01-30T00:05:27.218Z,94853.20
2019-01-30T00:10:24.124Z,94850.45
2019-01-30T00:15:21.272Z,94837.90
2019-01-30T00:20:18.330Z,94836.53
2019-01-30T00:25:15.373Z,94828.53
2019-01-30T00:30:20.387Z,94834.78
2019-01-30T00:35:17.311Z,94823.03
2019-01-30T00:40:20.092Z,94834.68
2019-01-30T00:45:19.231Z,94828.34
2019-01-30T00:50:21.860Z,94824.51
2019-01-30T00:55:18.954Z,94820.72
2019-01-30T01:00:27.928Z,94801.05
2019-01-30T01:05:24.871Z,94805.42
2019-01-30T01:10:22.108Z,94798.14
2019-01-30T01:15:19.023Z,94798.84
2019-01-30T01:20:22.826Z,94794.57
2019-01-30T01:25:19.718Z,94778.01
2019-01-30T01:30:26.485Z,94776.65
2019-01-30T01:35:23.594Z,94768.12
2019-01-30T01:40:20.556Z,94769.77
2019-01-30T01:45:21.574Z,94758.39
2019-01-30T01:50:20.710Z,94763.83
2019-01-30T01:55:17.676Z,94758.17
2019-01-30T02:00:20.328Z,94753.31
2019-01-30T02:05:22.485Z,94742.88
2019-01-30T02:10:23.987Z,94740.91
2019-01-30T02:15:22.404Z,94735.81
2019-01-30T02:20:30.016Z,94732.49
2019-01-30T02:25:27.021Z,94727.23
2019-01-30T02:30:31.794Z,94724.89
2019-01-30T02:35:28.712Z,94726.42
2019-01-30T02:40:25.672Z,94719.61
2019-01-30T02:45:24.878Z,94711.37
2019-01-30T02:50:21.834Z,94698.46
2019-01-30T02:55:19.031Z,94692.05
2019-01-30T03:00:25.825Z,94695.23
2019-01-30T03:05:23.268Z,94686.61
2019-01-30T03:10:22.315Z,94685.30
2019-01-30T03:15:19.829Z,94682.78
2019-01-30T03:20:24.144Z,94679.82
2019-01-30T03:25:23.957Z,94671.34
2019-01-30T03:30:30.193Z,94672.66
2019-01-30T03:35:27.285Z,94668.02
2019-01-30T03:40:24.335Z,94661.59
2019-01-30T03:45:23.442Z,94667.68
2019-01-30T03:50:20.391Z,94668.53
2019-01-30T03:55:19.501Z,94673.61
2019-01-30T04:00:25.084Z,94672.09
2019-01-30T04:05:22.976Z,94665.41
2019-01-30T04:10:23.554Z,94654.50
2019-01-30T04:15:21.057Z,94651.98
2019-01-30T04:20:20.496Z,94637.44
2019-01-30T04:25:18.250Z,94640.66
2019-01-30T04:30:23.195Z,94631.30
2019-01-30T04:35:20.123Z,94628.63
2019-01-30T04:40:19.756Z,94628.80
2019-01-30T04:45:20.592Z,94620.80
2019-01-30T04:50:18.033Z,94605.30
2019-01-30T04:55:15.331Z,94609.47
2019-01-30T05:00:22.342Z,94597.67
2019-01-30T05:05:19.461Z,94598.13
2019-01-30T05:10:16.412Z,94594.19
2019-01-30T05:15:16.312Z,94600.83
2019-01-30T05:20:16.064Z,94598.89
2019-01-30T05:25:13.581Z,94591.88
2019-01-30T05:30:30.088Z,94597.66
2019-01-30T05:35:26.975Z,94587.73
2019-01-30T05:40:24.127Z,94587.19
2019-01-30T05:45:21.334Z,94581.38
2019-01-30T05:50:18.272Z,94582.71
2019-01-30T05:55:16.695Z,94581.98
2019-01-30T06:00:27.384Z,94578.48
2019-01-30T06:05:24.494Z,94584.30
2019-01-30T06:10:21.552Z,94577.53
2019-01-30T06:15:19.646Z,94579.81
2019-01-30T06:20:26.230Z,94566.25
2019-01-30T06:25:23.432Z,94558.97
2019-01-30T06:30:23.943Z,94566.62
2019-01-30T06:35:20.833Z,94562.43
2019-01-30T06:40:21.612Z,94567.68
2019-01-30T06:45:18.517Z,94555.00
2019-01-30T06:50:15.451Z,94564.67
2019-01-30T06:55:12.465Z,94571.88
2019-01-30T07:00:17.556Z,94570.94
2019-01-30T07:05:14.559Z,94552.19
2019-01-30T07:10:19.224Z,94551.48
2019-01-30T07:15:16.213Z,94556.92
2019-01-30T07:20:15.104Z,94544.67
2019-01-30T07:25:15.970Z,94538.95
2019-01-30T07:30:20.405Z,94542.78
2019-01-30T07:35:17.672Z,94535.70
2019-01-30T07:40:15.621Z,94537.75
2019-01-30T07:45:19.693Z,94531.19
2019-01-30T07:50:16.705Z,94529.91
2019-01-30T07:55:15.829Z,94535.78
2019-01-30T08:00:23.230Z,94529.06
2019-01-30T08:05:22.802Z,94528.02
2019-01-30T08:10:19.952Z,94525.94
2019-01-30T08:15:22.075Z,94521.66
2019-01-30T08:20:20.981Z,94530.38
2019-01-30T08:25:20.509Z,94525.70
2019-01-30T08:30:26.067Z,94523.22
2019-01-30T08:35:26.253Z,94523.67
2019-01-30T08:40:23.153Z,94527.13
2019-01-30T08:45:24.361Z,94524.02
2019-01-30T08:50:21.367Z,94531.27
2019-01-30T08:55:18.304Z,94530.30
2019-01-30T09:00:22.097Z,94533.11
2019-01-30T09:05:19.017Z,94535.37
2019-01-30T09:10:21.544Z,94541.73
2019-01-30T09:15:21.157Z,94542.75
2019-01-30T09:20:21.615Z,94543.54
2019-01-30T09:25:25.094Z,94545.00
2019-01-30T09:30:28.568Z,94545.23
2019-01-30T09:35:25.516Z,94545.63
2019-01-30T09:40:22.664Z,94535.20
2019-01-30T09:45:20.993Z,94536.33
2019-01-30T09:50:23.830Z,94536.22
2019-01-30T09:55:20.825Z,94524.97
2019-01-30T10:00:30.929Z,94516.56
2019-01-30T10:05:27.943Z,94518.20
2019-01-30T10:10:29.748Z,94508.88
2019-01-30T10:15:35.485Z,94506.45
2019-01-30T10:20:34.512Z,94495.31
2019-01-30T10:25:31.459Z,94488.48
2019-01-30T10:30:34.591Z,94477.00
2019-01-30T10:35:31.541Z,94458.28
2019-01-30T10:40:28.481Z,94448.08
2019-01-30T10:45:25.817Z,94452.16
2019-01-30T10:50:31.456Z,94441.21
2019-01-30T10:55:34.864Z,94429.00
2019-01-30T11:00:36.095Z,94425.45
2019-01-30T11:05:33.082Z,94430.44
2019-01-30T11:10:31.389Z,94426.78
2019-01-30T11:15:29.555Z,94424.44
2019-01-30T11:20:28.161Z,94418.09
2019-01-30T11:25:36.051Z,94416.71
2019-01-30T11:30:35.034Z,94412.90
2019-01-30T11:35:32.236Z,94400.76
2019-01-30T11:40:29.299Z,94395.91
2019-01-30T11:45:33.347Z,94397.18
2019-01-30T11:50:30.284Z,94400.92
2019-01-30T11:55:27.258Z,94396.25
2019-01-30T12:00:32.508Z,94401.44
2019-01-30T12:05:29.436Z,94411.42
2019-01-30T12:10:26.414Z,94412.05
2019-01-30T12:20:17.828Z,94403.24
2019-01-30T12:25:19.887Z,94401.05
2019-01-30T12:30:25.453Z,94399.96
2019-01-30T12:35:22.371Z,94390.04
2019-01-30T12:40:23.668Z,94391.37
2019-01-30T12:45:33.648Z,94390.68
2019-01-30T12:50:30.661Z,94394.09
2019-01-30T12:55:29.535Z,94387.07
2019-01-30T13:00:31.284Z,94390.31
2019-01-30T13:05:28.825Z,94379.95
2019-01-30T13:10:25.843Z,94387.49
2019-01-30T13:15:27.783Z,94394.27
2019-01-30T13:20:24.681Z,94405.47
2019-01-30T13:25:25.709Z,94418.08
2019-01-30T13:30:27.158Z,94409.19
2019-01-30T13:35:24.256Z,94408.17
2019-01-30T13:40:28.589Z,94392.17
2019-01-30T13:45:26.689Z,94394.03
2019-01-30T13:50:26.139Z,94406.41
2019-01-30T13:55:23.058Z,94414.95
2019-01-30T14:00:27.243Z,94407.40
2019-01-30T14:05:24.260Z,94405.61
2019-01-30T14:10:21.388Z,94413.87
2019-01-30T14:15:30.630Z,94415.05
2019-01-30T14:20:27.584Z,94414.57
2019-01-30T14:25:24.622Z,94420.59
2019-01-30T14:30:31.307Z,94422.64
2019-01-30T14:35:30.328Z,94416.16
2019-01-30T14:40:28.387Z,94424.97
2019-01-30T14:45:25.293Z,94431.02
2019-01-30T14:50:24.873Z,94427.26
2019-01-30T14:55:22.303Z,94428.95
2019-01-30T15:00:32.797Z,94435.55
2019-01-30T15:05:29.789Z,94436.89
2019-01-30T15:10:28.986Z,94432.57
2019-01-30T15:15:31.241Z,94428.38
2019-01-30T15:20:31.174Z,94427.18
2019-01-30T15:25:28.379Z,94430.58
2019-01-30T15:30:32.025Z,94437.17
2019-01-30T15:35:33.590Z,94452.37
2019-01-30T15:40:29.621Z,94449.36
2019-01-30T15:45:26.511Z,94455.39
2019-01-30T15:50:33.300Z,94461.06
2019-01-30T15:55:30.178Z,94471.29
2019-01-30T16:00:48.734Z,94473.63
2019-01-30T16:05:45.789Z,94480.86
2019-01-30T16:10:42.830Z,94482.05
2019-01-30T16:15:53.717Z,94486.65
2019-01-30T16:20:50.721Z,94487.55
2019-01-30T16:25:47.825Z,94490.41
2019-01-30T16:30:44.788Z,94504.22
2019-01-30T16:35:41.869Z,94499.11
2019-01-30T16:40:39.755Z,94504.61
2019-01-30T16:45:36.909Z,94500.36
2019-01-30T16:50:34.449Z,94506.47
2019-01-30T16:55:31.436Z,94506.84
2019-01-30T17:00:31.673Z,94505.65
2019-01-30T17:05:29.545Z,94508.86
2019-01-30T17:10:26.562Z,94513.94
2019-01-30T17:15:31.381Z,94521.83
2019-01-30T17:20:31.899Z,94522.02
2019-01-30T17:25:29.054Z,94521.27
2019-01-30T17:30:45.757Z,94518.69
2019-01-30T17:35:42.715Z,94512.27
2019-01-30T17:40:40.496Z,94519.47
2019-01-30T17:45:37.421Z,94512.05
2019-01-30T17:50:34.388Z,94507.80
2019-01-30T17:55:31.284Z,94508.82
2019-01-30T18:00:40.932Z,94511.42
2019-01-30T18:05:37.856Z,94509.11
2019-01-30T18:10:34.808Z,94511.81
2019-01-30T18:15:32.361Z,94512.94
2019-01-30T18:20:29.326Z,94511.38
2019-01-30T18:25:26.307Z,94513.05
2019-01-30T18:30:24.268Z,94511.34
2019-01-30T18:35:21.388Z,94505.05
2019-01-30T18:40:32.685Z,94503.58
2019-01-30T18:45:31.002Z,94506.04
2019-01-30T18:50:29.011Z,94505.00
2019-01-30T18:55:25.925Z,94502.30
2019-01-30T19:00:38.584Z,94508.88
2019-01-30T19:05:35.719Z,94506.75
2019-01-30T19:10:32.660Z,94511.67
2019-01-30T19:15:30.396Z,94503.63
2019-01-30T19:20:42.101Z,94502.22
2019-01-30T19:25:39.318Z,94509.59
2019-01-30T19:30:36.241Z,94521.26
2019-01-30T19:35:33.173Z,94517.86
2019-01-30T19:40:30.125Z,94512.31
2019-01-30T19:45:27.253Z,94514.99
2019-01-30T19:50:29.469Z,94520.17
2019-01-30T19:55:26.584Z,94530.20
2019-01-30T20:00:36.144Z,94541.51
2019-01-30T20:05:33.067Z,94537.34
2019-01-30T20:10:35.492Z,94539.12
2019-01-30T20:15:32.590Z,94547.72
2019-01-30T20:20:29.921Z,94549.91
2019-01-30T20:25:43.535Z,94542.34
2019-01-30T20:30:39.383Z,94543.20
2019-01-30T20:35:36.399Z,94546.65
2019-01-30T20:40:33.365Z,94547.89
2019-01-30T20:45:33.795Z,94550.67
2019-01-30T20:50:30.309Z,94542.09
2019-01-30T20:55:27.359Z,94542.55
2019-01-30T21:00:31.117Z,94543.30
2019-01-30T21:05:28.109Z,94535.83
2019-01-30T21:10:32.487Z,94539.45
2019-01-30T21:15:29.386Z,94536.53
2019-01-30T21:20:26.359Z,94535.53
2019-01-30T21:25:23.265Z,94540.11
2019-01-30T21:30:35.582Z,94543.95
2019-01-30T21:35:32.497Z,94537.48
2019-01-30T21:40:29.434Z,94538.36
2019-01-30T21:45:26.751Z,94534.34
2019-01-30T21:50:23.703Z,94530.24
2019-01-30T21:55:23.416Z,94535.10
2019-01-30T22:00:26.106Z,94537.75
2019-01-30T22:05:23.018Z,94540.53
2019-01-30T22:10:24.764Z,94534.91
2019-01-30T22:15:21.969Z,94534.45
2019-01-30T22:20:24.159Z,94535.91
2019-01-30T22:25:24.150Z,94546.91
2019-01-30T22:30:32.375Z,94538.89
2019-01-30T22:35:29.268Z,94540.61
2019-01-30T22:40:26.266Z,94538.15
2019-01-30T22:45:23.387Z,94537.70
2019-01-30T22:50:20.909Z,94529.06
2019-01-30T22:55:20.520Z,94517.55
2019-01-30T23:00:52.389Z,94520.05
2019-01-30T23:06:17.404Z,94524.49
2019-01-30T23:11:22.635Z,94518.61
2019-01-30T23:16:36.433Z,94518.61
2019-01-30T23:21:41.789Z,94514.47
2019-01-30T23:26:46.829Z,94511.30
2019-01-30T23:32:07.116Z,94509.27
2019-01-30T23:37:30.394Z,94501.56
2019-01-30T23:43:01.753Z,94501.56
2019-01-30T23:48:23.893Z,94501.38
2019-01-30T23:53:43.977Z,94501.14
2019-01-30T23:59:11.800Z,94498.23
